sensor_id;sensor_type;location;lat;lon;timestamp;P1;durP1;ratioP1;P2;durP2;ratioP2
35602;SDS011;21725;50.836;4.368;2023-02-11T00:01:50;26.73;;;11.00;;
35602;SDS011;21725;50.836;4.368;2023-02-11T00:04:51;19.77;;;9.32;;
35602;SDS011;21725;50.836;4.368;2023-02-11T00:07:51;16.67;;;9.27;;
35602;SDS011;21725;50.836;4.368;2023-02-11T00:10:53;18.70;;;8.80;;
35602;SDS011;21725;50.836;4.368;2023-02-11T00:13:58;19.45;;;10.27;;
35602;SDS011;21725;50.836;4.368;2023-02-11T00:17:00;17.77;;;8.40;;
35602;SDS011;21725;50.836;4.368;2023-02-11T00:20:03;20.58;;;9.07;;
35602;SDS011;21725;50.836;4.368;2023-02-11T00:23:05;15.63;;;8.32;;
35602;SDS011;21725;50.836;4.368;2023-02-11T00:26:13;17.80;;;8.07;;
35602;SDS011;21725;50.836;4.368;2023-02-11T00:29:34;17.90;;;8.73;;
35602;SDS011;21725;50.836;4.368;2023-02-11T00:32:36;14.10;;;8.75;;
35602;SDS011;21725;50.836;4.368;2023-02-11T00:35:37;18.38;;;8.48;;
35602;SDS011;21725;50.836;4.368;2023-02-11T00:38:38;17.38;;;8.25;;
35602;SDS011;21725;50.836;4.368;2023-02-11T00:41:39;22.20;;;8.82;;
35602;SDS011;21725;50.836;4.368;2023-02-11T00:44:40;19.08;;;8.95;;
35602;SDS011;21725;50.836;4.368;2023-02-11T00:47:41;20.60;;;7.85;;
35602;SDS011;21725;50.836;4.368;2023-02-11T00:50:41;19.48;;;8.63;;
35602;SDS011;21725;50.836;4.368;2023-02-11T00:53:42;24.98;;;7.80;;
35602;SDS011;21725;50.836;4.368;2023-02-11T00:56:43;16.58;;;7.45;;
35602;SDS011;21725;50.836;4.368;2023-02-11T00:59:46;25.00;;;10.57;;
35602;SDS011;21725;50.836;4.368;2023-02-11T01:02:49;18.33;;;7.75;;
35602;SDS011;21725;50.836;4.368;2023-02-11T01:05:49;21.42;;;8.93;;
35602;SDS011;21725;50.836;4.368;2023-02-11T01:08:50;17.05;;;8.90;;
35602;SDS011;21725;50.836;4.368;2023-02-11T01:11:51;25.80;;;8.30;;
35602;SDS011;21725;50.836;4.368;2023-02-11T01:14:52;19.42;;;7.68;;
35602;SDS011;21725;50.836;4.368;2023-02-11T01:17:52;14.05;;;8.18;;
35602;SDS011;21725;50.836;4.368;2023-02-11T01:20:53;17.38;;;7.32;;
35602;SDS011;21725;50.836;4.368;2023-02-11T01:23:58;18.08;;;7.53;;
35602;SDS011;21725;50.836;4.368;2023-02-11T01:26:58;23.55;;;10.13;;
35602;SDS011;21725;50.836;4.368;2023-02-11T01:29:59;17.88;;;7.57;;
35602;SDS011;21725;50.836;4.368;2023-02-11T01:33:00;18.63;;;8.55;;
35602;SDS011;21725;50.836;4.368;2023-02-11T01:36:04;18.52;;;8.98;;
35602;SDS011;21725;50.836;4.368;2023-02-11T01:39:05;18.27;;;8.73;;
35602;SDS011;21725;50.836;4.368;2023-02-11T01:42:10;17.17;;;8.35;;
35602;SDS011;21725;50.836;4.368;2023-02-11T01:48:53;17.75;;;9.13;;
35602;SDS011;21725;50.836;4.368;2023-02-11T01:52:20;18.98;;;9.45;;
35602;SDS011;21725;50.836;4.368;2023-02-11T01:55:29;17.70;;;7.82;;
35602;SDS011;21725;50.836;4.368;2023-02-11T01:58:48;15.65;;;8.00;;
35602;SDS011;21725;50.836;4.368;2023-02-11T02:01:55;13.52;;;6.97;;
35602;SDS011;21725;50.836;4.368;2023-02-11T02:05:07;13.82;;;7.22;;
35602;SDS011;21725;50.836;4.368;2023-02-11T02:08:18;17.97;;;7.80;;
35602;SDS011;21725;50.836;4.368;2023-02-11T02:11:28;19.10;;;8.10;;
35602;SDS011;21725;50.836;4.368;2023-02-11T02:14:29;21.63;;;8.38;;
35602;SDS011;21725;50.836;4.368;2023-02-11T02:17:33;22.10;;;9.75;;
35602;SDS011;21725;50.836;4.368;2023-02-11T02:20:51;15.07;;;7.78;;
35602;SDS011;21725;50.836;4.368;2023-02-11T02:34:50;17.17;;;8.85;;
35602;SDS011;21725;50.836;4.368;2023-02-11T02:38:02;16.00;;;7.32;;
35602;SDS011;21725;50.836;4.368;2023-02-11T02:41:11;14.38;;;7.97;;
35602;SDS011;21725;50.836;4.368;2023-02-11T02:44:15;15.93;;;7.40;;
35602;SDS011;21725;50.836;4.368;2023-02-11T02:47:17;14.68;;;7.28;;
35602;SDS011;21725;50.836;4.368;2023-02-11T02:50:19;21.27;;;8.32;;
35602;SDS011;21725;50.836;4.368;2023-02-11T02:57:21;21.48;;;7.88;;
35602;SDS011;21725;50.836;4.368;2023-02-11T03:03:42;16.85;;;7.38;;
35602;SDS011;21725;50.836;4.368;2023-02-11T03:06:51;19.35;;;7.75;;
35602;SDS011;21725;50.836;4.368;2023-02-11T03:10:11;11.68;;;6.82;;
35602;SDS011;21725;50.836;4.368;2023-02-11T03:13:13;26.67;;;8.93;;
35602;SDS011;21725;50.836;4.368;2023-02-11T03:16:19;14.85;;;7.15;;
35602;SDS011;21725;50.836;4.368;2023-02-11T03:19:25;17.00;;;7.97;;
35602;SDS011;21725;50.836;4.368;2023-02-11T03:22:34;20.70;;;8.45;;
35602;SDS011;21725;50.836;4.368;2023-02-11T03:25:41;17.27;;;6.82;;
35602;SDS011;21725;50.836;4.368;2023-02-11T03:28:54;18.35;;;8.88;;
35602;SDS011;21725;50.836;4.368;2023-02-11T03:31:59;16.08;;;7.53;;
35602;SDS011;21725;50.836;4.368;2023-02-11T03:35:06;15.40;;;11.02;;
35602;SDS011;21725;50.836;4.368;2023-02-11T03:38:20;19.40;;;10.52;;
35602;SDS011;21725;50.836;4.368;2023-02-11T03:41:24;17.95;;;7.60;;
35602;SDS011;21725;50.836;4.368;2023-02-11T03:44:26;18.05;;;8.05;;
35602;SDS011;21725;50.836;4.368;2023-02-11T03:47:31;24.33;;;8.40;;
35602;SDS011;21725;50.836;4.368;2023-02-11T03:50:35;21.70;;;8.27;;
35602;SDS011;21725;50.836;4.368;2023-02-11T03:53:38;16.27;;;7.80;;
35602;SDS011;21725;50.836;4.368;2023-02-11T03:56:51;19.60;;;9.20;;
35602;SDS011;21725;50.836;4.368;2023-02-11T03:59:57;19.25;;;8.05;;
35602;SDS011;21725;50.836;4.368;2023-02-11T04:02:58;20.55;;;8.65;;
35602;SDS011;21725;50.836;4.368;2023-02-11T04:05:59;19.98;;;8.18;;
35602;SDS011;21725;50.836;4.368;2023-02-11T04:09:00;18.77;;;9.77;;
35602;SDS011;21725;50.836;4.368;2023-02-11T04:12:03;20.33;;;8.90;;
35602;SDS011;21725;50.836;4.368;2023-02-11T04:15:05;17.90;;;8.65;;
35602;SDS011;21725;50.836;4.368;2023-02-11T04:18:06;17.33;;;9.07;;
35602;SDS011;21725;50.836;4.368;2023-02-11T04:21:07;20.38;;;8.73;;
35602;SDS011;21725;50.836;4.368;2023-02-11T04:24:08;20.50;;;9.55;;
35602;SDS011;21725;50.836;4.368;2023-02-11T04:27:08;18.00;;;9.60;;
35602;SDS011;21725;50.836;4.368;2023-02-11T04:30:09;19.30;;;8.52;;
35602;SDS011;21725;50.836;4.368;2023-02-11T04:33:11;29.52;;;10.15;;
35602;SDS011;21725;50.836;4.368;2023-02-11T04:36:12;14.20;;;9.30;;
35602;SDS011;21725;50.836;4.368;2023-02-11T04:39:12;19.33;;;9.68;;
35602;SDS011;21725;50.836;4.368;2023-02-11T04:42:13;20.42;;;9.32;;
35602;SDS011;21725;50.836;4.368;2023-02-11T04:45:14;19.95;;;8.95;;
35602;SDS011;21725;50.836;4.368;2023-02-11T04:48:15;20.38;;;8.45;;
35602;SDS011;21725;50.836;4.368;2023-02-11T04:51:15;23.50;;;10.25;;
35602;SDS011;21725;50.836;4.368;2023-02-11T04:54:16;25.25;;;12.50;;
35602;SDS011;21725;50.836;4.368;2023-02-11T04:57:17;22.45;;;10.57;;
35602;SDS011;21725;50.836;4.368;2023-02-11T05:00:18;23.88;;;11.00;;
35602;SDS011;21725;50.836;4.368;2023-02-11T05:24:59;28.50;;;10.88;;
35602;SDS011;21725;50.836;4.368;2023-02-11T05:28:00;20.13;;;12.30;;
35602;SDS011;21725;50.836;4.368;2023-02-11T05:31:04;21.50;;;11.63;;
35602;SDS011;21725;50.836;4.368;2023-02-11T05:34:05;30.88;;;11.93;;
35602;SDS011;21725;50.836;4.368;2023-02-11T05:37:06;19.42;;;11.02;;
35602;SDS011;21725;50.836;4.368;2023-02-11T05:40:07;26.08;;;11.68;;
35602;SDS011;21725;50.836;4.368;2023-02-11T05:43:08;20.73;;;13.10;;
35602;SDS011;21725;50.836;4.368;2023-02-11T05:46:09;28.42;;;13.27;;
35602;SDS011;21725;50.836;4.368;2023-02-11T05:49:09;21.65;;;11.52;;
35602;SDS011;21725;50.836;4.368;2023-02-11T05:52:10;20.02;;;11.20;;
35602;SDS011;21725;50.836;4.368;2023-02-11T05:55:11;23.85;;;13.60;;
35602;SDS011;21725;50.836;4.368;2023-02-11T05:58:12;29.73;;;12.63;;
35602;SDS011;21725;50.836;4.368;2023-02-11T06:01:12;30.52;;;12.93;;
35602;SDS011;21725;50.836;4.368;2023-02-11T06:04:13;25.00;;;13.70;;
35602;SDS011;21725;50.836;4.368;2023-02-11T06:07:14;33.00;;;13.88;;
35602;SDS011;21725;50.836;4.368;2023-02-11T06:10:16;34.92;;;14.95;;
35602;SDS011;21725;50.836;4.368;2023-02-11T06:13:17;25.65;;;14.88;;
35602;SDS011;21725;50.836;4.368;2023-02-11T06:16:18;27.23;;;15.68;;
35602;SDS011;21725;50.836;4.368;2023-02-11T06:19:19;27.77;;;14.23;;
35602;SDS011;21725;50.836;4.368;2023-02-11T06:22:20;28.40;;;15.43;;
35602;SDS011;21725;50.836;4.368;2023-02-11T06:25:20;39.25;;;16.45;;
35602;SDS011;21725;50.836;4.368;2023-02-11T06:28:21;27.70;;;15.43;;
35602;SDS011;21725;50.836;4.368;2023-02-11T06:31:22;30.27;;;14.82;;
35602;SDS011;21725;50.836;4.368;2023-02-11T06:34:23;30.70;;;13.93;;
35602;SDS011;21725;50.836;4.368;2023-02-11T06:37:23;31.40;;;15.45;;
35602;SDS011;21725;50.836;4.368;2023-02-11T06:40:24;25.42;;;14.80;;
35602;SDS011;21725;50.836;4.368;2023-02-11T06:43:25;28.55;;;16.52;;
35602;SDS011;21725;50.836;4.368;2023-02-11T06:46:25;27.95;;;14.25;;
35602;SDS011;21725;50.836;4.368;2023-02-11T06:49:26;25.75;;;15.20;;
35602;SDS011;21725;50.836;4.368;2023-02-11T06:52:27;31.30;;;17.15;;
35602;SDS011;21725;50.836;4.368;2023-02-11T06:55:28;28.88;;;16.10;;
35602;SDS011;21725;50.836;4.368;2023-02-11T06:58:29;28.13;;;17.33;;
35602;SDS011;21725;50.836;4.368;2023-02-11T07:01:29;27.05;;;16.98;;
35602;SDS011;21725;50.836;4.368;2023-02-11T07:04:30;26.30;;;15.82;;
35602;SDS011;21725;50.836;4.368;2023-02-11T07:07:31;43.45;;;18.75;;
35602;SDS011;21725;50.836;4.368;2023-02-11T07:10:32;36.85;;;18.25;;
35602;SDS011;21725;50.836;4.368;2023-02-11T07:13:33;28.92;;;16.70;;
35602;SDS011;21725;50.836;4.368;2023-02-11T07:16:34;27.63;;;17.23;;
35602;SDS011;21725;50.836;4.368;2023-02-11T07:19:35;38.13;;;17.20;;
35602;SDS011;21725;50.836;4.368;2023-02-11T07:22:36;29.88;;;16.55;;
35602;SDS011;21725;50.836;4.368;2023-02-11T07:25:36;34.60;;;15.65;;
35602;SDS011;21725;50.836;4.368;2023-02-11T07:28:38;32.22;;;15.43;;
35602;SDS011;21725;50.836;4.368;2023-02-11T07:31:39;30.52;;;17.67;;
35602;SDS011;21725;50.836;4.368;2023-02-11T07:34:40;28.98;;;17.20;;
35602;SDS011;21725;50.836;4.368;2023-02-11T07:37:41;30.63;;;17.65;;
35602;SDS011;21725;50.836;4.368;2023-02-11T07:40:41;31.23;;;18.35;;
35602;SDS011;21725;50.836;4.368;2023-02-11T07:43:42;30.48;;;18.20;;
35602;SDS011;21725;50.836;4.368;2023-02-11T07:46:44;33.72;;;17.52;;
35602;SDS011;21725;50.836;4.368;2023-02-11T07:49:44;34.33;;;18.77;;
35602;SDS011;21725;50.836;4.368;2023-02-11T07:52:45;34.38;;;18.25;;
35602;SDS011;21725;50.836;4.368;2023-02-11T07:55:46;31.48;;;18.75;;
35602;SDS011;21725;50.836;4.368;2023-02-11T07:58:47;34.72;;;19.58;;
35602;SDS011;21725;50.836;4.368;2023-02-11T08:01:48;40.45;;;20.00;;
35602;SDS011;21725;50.836;4.368;2023-02-11T08:04:50;31.23;;;18.80;;
35602;SDS011;21725;50.836;4.368;2023-02-11T08:07:51;46.83;;;22.92;;
35602;SDS011;21725;50.836;4.368;2023-02-11T08:10:53;41.00;;;19.65;;
35602;SDS011;21725;50.836;4.368;2023-02-11T08:13:57;41.08;;;21.02;;
35602;SDS011;21725;50.836;4.368;2023-02-11T08:16:58;39.00;;;21.75;;
35602;SDS011;21725;50.836;4.368;2023-02-11T08:19:59;39.88;;;20.75;;
35602;SDS011;21725;50.836;4.368;2023-02-11T08:23:00;40.35;;;21.92;;
35602;SDS011;21725;50.836;4.368;2023-02-11T08:26:02;47.60;;;22.20;;
35602;SDS011;21725;50.836;4.368;2023-02-11T08:29:06;46.90;;;22.58;;
35602;SDS011;21725;50.836;4.368;2023-02-11T08:32:09;42.60;;;23.27;;
35602;SDS011;21725;50.836;4.368;2023-02-11T08:35:10;40.50;;;21.65;;
35602;SDS011;21725;50.836;4.368;2023-02-11T08:38:11;40.83;;;22.98;;
35602;SDS011;21725;50.836;4.368;2023-02-11T08:41:12;49.65;;;22.30;;
35602;SDS011;21725;50.836;4.368;2023-02-11T08:44:16;40.92;;;21.23;;
35602;SDS011;21725;50.836;4.368;2023-02-11T08:47:18;53.95;;;23.45;;
35602;SDS011;21725;50.836;4.368;2023-02-11T08:50:19;46.40;;;21.92;;
35602;SDS011;21725;50.836;4.368;2023-02-11T08:53:20;45.10;;;24.25;;
35602;SDS011;21725;50.836;4.368;2023-02-11T08:56:21;53.05;;;24.88;;
35602;SDS011;21725;50.836;4.368;2023-02-11T08:59:25;47.10;;;23.45;;
35602;SDS011;21725;50.836;4.368;2023-02-11T09:02:25;46.33;;;24.58;;
35602;SDS011;21725;50.836;4.368;2023-02-11T09:05:26;50.20;;;25.23;;
35602;SDS011;21725;50.836;4.368;2023-02-11T09:08:27;43.70;;;23.48;;
35602;SDS011;21725;50.836;4.368;2023-02-11T09:11:29;61.67;;;25.95;;
35602;SDS011;21725;50.836;4.368;2023-02-11T09:14:34;52.58;;;24.98;;
35602;SDS011;21725;50.836;4.368;2023-02-11T09:17:35;48.22;;;25.15;;
35602;SDS011;21725;50.836;4.368;2023-02-11T09:20:36;52.55;;;24.10;;
35602;SDS011;21725;50.836;4.368;2023-02-11T09:23:36;49.53;;;25.67;;
35602;SDS011;21725;50.836;4.368;2023-02-11T09:26:37;53.15;;;26.15;;
35602;SDS011;21725;50.836;4.368;2023-02-11T09:29:42;52.90;;;26.75;;
35602;SDS011;21725;50.836;4.368;2023-02-11T09:32:43;55.63;;;27.60;;
35602;SDS011;21725;50.836;4.368;2023-02-11T09:35:43;59.25;;;28.75;;
35602;SDS011;21725;50.836;4.368;2023-02-11T09:38:45;48.72;;;27.83;;
35602;SDS011;21725;50.836;4.368;2023-02-11T09:42:03;55.78;;;27.08;;
35602;SDS011;21725;50.836;4.368;2023-02-11T09:45:12;52.08;;;24.88;;
35602;SDS011;21725;50.836;4.368;2023-02-11T09:48:24;63.65;;;31.02;;
35602;SDS011;21725;50.836;4.368;2023-02-11T09:51:32;55.88;;;29.08;;
35602;SDS011;21725;50.836;4.368;2023-02-11T09:57:50;52.80;;;27.00;;
35602;SDS011;21725;50.836;4.368;2023-02-11T10:07:56;52.53;;;27.17;;
35602;SDS011;21725;50.836;4.368;2023-02-11T10:24:53;59.97;;;29.63;;
35602;SDS011;21725;50.836;4.368;2023-02-11T10:27:58;54.10;;;29.67;;
35602;SDS011;21725;50.836;4.368;2023-02-11T10:34:05;50.17;;;26.38;;
35602;SDS011;21725;50.836;4.368;2023-02-11T10:37:10;55.72;;;28.63;;
35602;SDS011;21725;50.836;4.368;2023-02-11T10:40:20;57.17;;;29.52;;
35602;SDS011;21725;50.836;4.368;2023-02-11T10:43:25;54.95;;;29.50;;
35602;SDS011;21725;50.836;4.368;2023-02-11T10:46:28;58.58;;;32.40;;
35602;SDS011;21725;50.836;4.368;2023-02-11T10:49:33;58.35;;;29.10;;
35602;SDS011;21725;50.836;4.368;2023-02-11T10:52:34;54.45;;;28.17;;
35602;SDS011;21725;50.836;4.368;2023-02-11T10:55:35;56.92;;;28.05;;
35602;SDS011;21725;50.836;4.368;2023-02-11T10:58:39;62.22;;;30.48;;
35602;SDS011;21725;50.836;4.368;2023-02-11T11:23:31;52.38;;;30.13;;
35602;SDS011;21725;50.836;4.368;2023-02-11T11:26:45;57.30;;;30.77;;
35602;SDS011;21725;50.836;4.368;2023-02-11T11:29:52;57.33;;;31.15;;
35602;SDS011;21725;50.836;4.368;2023-02-11T11:32:55;63.13;;;31.85;;
35602;SDS011;21725;50.836;4.368;2023-02-11T11:36:06;56.13;;;30.05;;
35602;SDS011;21725;50.836;4.368;2023-02-11T11:39:28;57.42;;;31.77;;
35602;SDS011;21725;50.836;4.368;2023-02-11T11:42:32;58.42;;;31.92;;
35602;SDS011;21725;50.836;4.368;2023-02-11T11:45:35;62.58;;;32.90;;
35602;SDS011;21725;50.836;4.368;2023-02-11T11:48:40;58.60;;;30.77;;
35602;SDS011;21725;50.836;4.368;2023-02-11T11:58:32;55.85;;;30.35;;
35602;SDS011;21725;50.836;4.368;2023-02-11T12:04:55;58.42;;;30.35;;
35602;SDS011;21725;50.836;4.368;2023-02-11T12:08:21;64.07;;;31.45;;
35602;SDS011;21725;50.836;4.368;2023-02-11T12:18:07;64.75;;;34.85;;
35602;SDS011;21725;50.836;4.368;2023-02-11T12:24:29;59.22;;;31.60;;
35602;SDS011;21725;50.836;4.368;2023-02-11T12:38:11;62.40;;;31.25;;
35602;SDS011;21725;50.836;4.368;2023-02-11T12:52:35;53.47;;;29.95;;
35602;SDS011;21725;50.836;4.368;2023-02-11T12:55:57;58.28;;;31.90;;
35602;SDS011;21725;50.836;4.368;2023-02-11T12:59:05;55.22;;;30.90;;
35602;SDS011;21725;50.836;4.368;2023-02-11T13:02:17;53.50;;;31.58;;
35602;SDS011;21725;50.836;4.368;2023-02-11T13:08:52;56.88;;;32.50;;
35602;SDS011;21725;50.836;4.368;2023-02-11T13:11:59;51.30;;;29.75;;
35602;SDS011;21725;50.836;4.368;2023-02-11T13:15:23;56.67;;;31.33;;
35602;SDS011;21725;50.836;4.368;2023-02-11T13:22:04;57.67;;;33.35;;
35602;SDS011;21725;50.836;4.368;2023-02-11T13:25:21;58.47;;;29.35;;
35602;SDS011;21725;50.836;4.368;2023-02-11T13:32:06;60.83;;;31.45;;
35602;SDS011;21725;50.836;4.368;2023-02-11T13:35:25;64.63;;;32.30;;
35602;SDS011;21725;50.836;4.368;2023-02-11T13:38:27;55.22;;;30.13;;
35602;SDS011;21725;50.836;4.368;2023-02-11T13:41:48;54.42;;;30.60;;
35602;SDS011;21725;50.836;4.368;2023-02-11T13:44:50;55.15;;;29.55;;
35602;SDS011;21725;50.836;4.368;2023-02-11T13:47:55;57.15;;;32.15;;
35602;SDS011;21725;50.836;4.368;2023-02-11T13:51:06;58.80;;;34.05;;
35602;SDS011;21725;50.836;4.368;2023-02-11T13:54:17;58.13;;;32.67;;
35602;SDS011;21725;50.836;4.368;2023-02-11T13:57:41;53.75;;;31.88;;
35602;SDS011;21725;50.836;4.368;2023-02-11T14:00:46;53.70;;;32.13;;
35602;SDS011;21725;50.836;4.368;2023-02-11T14:04:04;65.05;;;33.40;;
35602;SDS011;21725;50.836;4.368;2023-02-11T14:14:32;60.38;;;34.38;;
35602;SDS011;21725;50.836;4.368;2023-02-11T14:17:35;54.40;;;33.53;;
35602;SDS011;21725;50.836;4.368;2023-02-11T14:20:36;65.97;;;33.05;;
35602;SDS011;21725;50.836;4.368;2023-02-11T14:23:43;56.13;;;34.03;;
35602;SDS011;21725;50.836;4.368;2023-02-11T14:26:52;50.33;;;32.80;;
35602;SDS011;21725;50.836;4.368;2023-02-11T14:37:00;65.60;;;34.33;;
35602;SDS011;21725;50.836;4.368;2023-02-11T14:43:53;62.90;;;32.95;;
35602;SDS011;21725;50.836;4.368;2023-02-11T14:46:57;61.47;;;34.50;;
35602;SDS011;21725;50.836;4.368;2023-02-11T14:49:58;57.45;;;36.15;;
35602;SDS011;21725;50.836;4.368;2023-02-11T14:52:59;55.45;;;33.05;;
35602;SDS011;21725;50.836;4.368;2023-02-11T14:56:02;58.00;;;33.92;;
35602;SDS011;21725;50.836;4.368;2023-02-11T14:59:18;55.65;;;34.83;;
35602;SDS011;21725;50.836;4.368;2023-02-11T15:02:22;63.80;;;35.47;;
35602;SDS011;21725;50.836;4.368;2023-02-11T15:05:27;54.75;;;34.40;;
35602;SDS011;21725;50.836;4.368;2023-02-11T15:08:28;56.63;;;35.28;;
35602;SDS011;21725;50.836;4.368;2023-02-11T15:11:32;61.15;;;34.38;;
35602;SDS011;21725;50.836;4.368;2023-02-11T15:14:37;51.85;;;33.05;;
35602;SDS011;21725;50.836;4.368;2023-02-11T15:17:44;68.90;;;39.08;;
35602;SDS011;21725;50.836;4.368;2023-02-11T15:20:45;70.07;;;36.85;;
35602;SDS011;21725;50.836;4.368;2023-02-11T15:23:59;72.75;;;44.97;;
35602;SDS011;21725;50.836;4.368;2023-02-11T15:33:24;67.00;;;42.58;;
35602;SDS011;21725;50.836;4.368;2023-02-11T15:36:25;59.08;;;37.88;;
35602;SDS011;21725;50.836;4.368;2023-02-11T15:39:33;64.35;;;37.65;;
35602;SDS011;21725;50.836;4.368;2023-02-11T15:42:37;59.10;;;40.72;;
35602;SDS011;21725;50.836;4.368;2023-02-11T15:45:51;57.47;;;36.22;;
35602;SDS011;21725;50.836;4.368;2023-02-11T15:48:56;55.67;;;37.38;;
35602;SDS011;21725;50.836;4.368;2023-02-11T15:51:56;58.60;;;37.40;;
35602;SDS011;21725;50.836;4.368;2023-02-11T15:54:58;48.90;;;33.00;;
35602;SDS011;21725;50.836;4.368;2023-02-11T15:58:03;55.10;;;32.65;;
35602;SDS011;21725;50.836;4.368;2023-02-11T16:01:04;52.03;;;35.20;;
35602;SDS011;21725;50.836;4.368;2023-02-11T16:04:05;55.78;;;34.35;;
35602;SDS011;21725;50.836;4.368;2023-02-11T16:07:35;53.25;;;36.40;;
35602;SDS011;21725;50.836;4.368;2023-02-11T16:10:51;48.92;;;33.25;;
35602;SDS011;21725;50.836;4.368;2023-02-11T16:13:57;56.42;;;36.33;;
35602;SDS011;21725;50.836;4.368;2023-02-11T16:17:12;51.15;;;34.08;;
35602;SDS011;21725;50.836;4.368;2023-02-11T16:20:22;51.95;;;35.53;;
35602;SDS011;21725;50.836;4.368;2023-02-11T16:23:41;53.45;;;35.10;;
35602;SDS011;21725;50.836;4.368;2023-02-11T16:26:49;57.92;;;33.88;;
35602;SDS011;21725;50.836;4.368;2023-02-11T16:29:52;45.67;;;32.80;;
35602;SDS011;21725;50.836;4.368;2023-02-11T16:32:53;57.58;;;33.90;;
35602;SDS011;21725;50.836;4.368;2023-02-11T16:35:55;51.83;;;35.30;;
35602;SDS011;21725;50.836;4.368;2023-02-11T16:38:56;59.47;;;37.72;;
35602;SDS011;21725;50.836;4.368;2023-02-11T16:42:00;54.75;;;36.72;;
35602;SDS011;21725;50.836;4.368;2023-02-11T16:45:02;49.95;;;35.40;;
35602;SDS011;21725;50.836;4.368;2023-02-11T16:48:06;52.75;;;35.25;;
35602;SDS011;21725;50.836;4.368;2023-02-11T16:51:09;52.65;;;36.70;;
35602;SDS011;21725;50.836;4.368;2023-02-11T16:54:14;56.33;;;37.38;;
35602;SDS011;21725;50.836;4.368;2023-02-11T16:57:19;57.63;;;36.10;;
35602;SDS011;21725;50.836;4.368;2023-02-11T17:23:41;56.33;;;38.22;;
35602;SDS011;21725;50.836;4.368;2023-02-11T17:26:44;54.60;;;38.53;;
35602;SDS011;21725;50.836;4.368;2023-02-11T17:29:46;54.22;;;37.42;;
35602;SDS011;21725;50.836;4.368;2023-02-11T17:32:46;54.00;;;36.65;;
35602;SDS011;21725;50.836;4.368;2023-02-11T17:35:47;49.72;;;36.45;;
35602;SDS011;21725;50.836;4.368;2023-02-11T17:38:48;48.55;;;36.92;;
35602;SDS011;21725;50.836;4.368;2023-02-11T17:41:50;57.95;;;39.58;;
35602;SDS011;21725;50.836;4.368;2023-02-11T17:44:51;56.65;;;40.42;;
35602;SDS011;21725;50.836;4.368;2023-02-11T17:47:51;50.42;;;34.28;;
35602;SDS011;21725;50.836;4.368;2023-02-11T17:50:52;51.53;;;36.55;;
35602;SDS011;21725;50.836;4.368;2023-02-11T17:53:53;52.83;;;37.10;;
35602;SDS011;21725;50.836;4.368;2023-02-11T17:56:57;51.30;;;34.80;;
35602;SDS011;21725;50.836;4.368;2023-02-11T17:59:58;48.13;;;35.97;;
35602;SDS011;21725;50.836;4.368;2023-02-11T18:02:59;50.45;;;36.15;;
35602;SDS011;21725;50.836;4.368;2023-02-11T18:06:03;51.90;;;35.58;;
35602;SDS011;21725;50.836;4.368;2023-02-11T18:09:05;53.85;;;35.63;;
35602;SDS011;21725;50.836;4.368;2023-02-11T18:12:06;44.17;;;32.97;;
35602;SDS011;21725;50.836;4.368;2023-02-11T18:15:07;49.40;;;35.75;;
35602;SDS011;21725;50.836;4.368;2023-02-11T18:18:08;45.80;;;33.75;;
35602;SDS011;21725;50.836;4.368;2023-02-11T18:21:13;46.90;;;34.33;;
35602;SDS011;21725;50.836;4.368;2023-02-11T18:24:15;52.70;;;35.35;;
35602;SDS011;21725;50.836;4.368;2023-02-11T18:27:17;52.88;;;35.40;;
35602;SDS011;21725;50.836;4.368;2023-02-11T18:30:18;54.10;;;36.45;;
35602;SDS011;21725;50.836;4.368;2023-02-11T18:33:19;52.80;;;37.33;;
35602;SDS011;21725;50.836;4.368;2023-02-11T18:36:20;49.83;;;34.70;;
35602;SDS011;21725;50.836;4.368;2023-02-11T18:39:22;49.75;;;34.35;;
35602;SDS011;21725;50.836;4.368;2023-02-11T18:42:23;50.75;;;35.10;;
35602;SDS011;21725;50.836;4.368;2023-02-11T18:45:23;54.08;;;36.13;;
35602;SDS011;21725;50.836;4.368;2023-02-11T18:48:27;57.45;;;36.97;;
35602;SDS011;21725;50.836;4.368;2023-02-11T18:51:28;48.90;;;34.00;;
35602;SDS011;21725;50.836;4.368;2023-02-11T18:54:31;50.58;;;35.75;;
35602;SDS011;21725;50.836;4.368;2023-02-11T18:57:32;53.40;;;36.10;;
35602;SDS011;21725;50.836;4.368;2023-02-11T19:00:33;53.50;;;37.92;;
35602;SDS011;21725;50.836;4.368;2023-02-11T19:03:34;58.53;;;40.67;;
35602;SDS011;21725;50.836;4.368;2023-02-11T19:06:35;63.88;;;42.17;;
35602;SDS011;21725;50.836;4.368;2023-02-11T19:09:36;53.42;;;36.25;;
35602;SDS011;21725;50.836;4.368;2023-02-11T19:12:37;48.53;;;35.38;;
35602;SDS011;21725;50.836;4.368;2023-02-11T19:15:41;52.50;;;37.60;;
35602;SDS011;21725;50.836;4.368;2023-02-11T19:18:45;57.30;;;40.97;;
35602;SDS011;21725;50.836;4.368;2023-02-11T19:21:46;55.45;;;39.13;;
35602;SDS011;21725;50.836;4.368;2023-02-11T19:24:47;50.15;;;36.28;;
35602;SDS011;21725;50.836;4.368;2023-02-11T19:27:48;51.95;;;35.22;;
35602;SDS011;21725;50.836;4.368;2023-02-11T19:30:49;53.42;;;33.97;;
35602;SDS011;21725;50.836;4.368;2023-02-11T19:33:50;53.42;;;37.90;;
35602;SDS011;21725;50.836;4.368;2023-02-11T19:36:50;44.67;;;32.50;;
35602;SDS011;21725;50.836;4.368;2023-02-11T19:39:53;49.45;;;34.05;;
35602;SDS011;21725;50.836;4.368;2023-02-11T19:42:53;51.83;;;36.42;;
35602;SDS011;21725;50.836;4.368;2023-02-11T19:45:54;45.42;;;33.72;;
35602;SDS011;21725;50.836;4.368;2023-02-11T19:48:57;47.45;;;34.22;;
35602;SDS011;21725;50.836;4.368;2023-02-11T19:51:59;55.00;;;35.08;;
35602;SDS011;21725;50.836;4.368;2023-02-11T19:54:59;50.08;;;34.40;;
35602;SDS011;21725;50.836;4.368;2023-02-11T19:58:00;51.15;;;34.10;;
35602;SDS011;21725;50.836;4.368;2023-02-11T20:01:11;55.33;;;36.42;;
35602;SDS011;21725;50.836;4.368;2023-02-11T20:04:16;57.83;;;40.97;;
35602;SDS011;21725;50.836;4.368;2023-02-11T20:07:16;54.75;;;40.88;;
35602;SDS011;21725;50.836;4.368;2023-02-11T20:10:17;45.00;;;32.63;;
35602;SDS011;21725;50.836;4.368;2023-02-11T20:13:18;51.42;;;37.08;;
35602;SDS011;21725;50.836;4.368;2023-02-11T20:16:20;59.13;;;39.95;;
35602;SDS011;21725;50.836;4.368;2023-02-11T20:19:23;65.43;;;42.65;;
35602;SDS011;21725;50.836;4.368;2023-02-11T20:22:23;62.63;;;41.33;;
35602;SDS011;21725;50.836;4.368;2023-02-11T20:25:24;53.67;;;37.38;;
35602;SDS011;21725;50.836;4.368;2023-02-11T20:28:25;52.42;;;36.15;;
35602;SDS011;21725;50.836;4.368;2023-02-11T20:31:25;56.67;;;40.75;;
35602;SDS011;21725;50.836;4.368;2023-02-11T20:34:27;59.53;;;41.80;;
35602;SDS011;21725;50.836;4.368;2023-02-11T20:37:28;57.00;;;39.78;;
35602;SDS011;21725;50.836;4.368;2023-02-11T20:40:29;62.95;;;42.63;;
35602;SDS011;21725;50.836;4.368;2023-02-11T20:43:29;60.97;;;41.20;;
35602;SDS011;21725;50.836;4.368;2023-02-11T20:46:31;62.28;;;40.70;;
35602;SDS011;21725;50.836;4.368;2023-02-11T20:49:33;51.60;;;35.72;;
35602;SDS011;21725;50.836;4.368;2023-02-11T20:52:34;54.28;;;39.30;;
35602;SDS011;21725;50.836;4.368;2023-02-11T20:55:36;55.97;;;37.30;;
35602;SDS011;21725;50.836;4.368;2023-02-11T20:58:38;53.80;;;36.35;;
35602;SDS011;21725;50.836;4.368;2023-02-11T21:01:40;49.42;;;36.95;;
35602;SDS011;21725;50.836;4.368;2023-02-11T21:04:43;57.10;;;40.75;;
35602;SDS011;21725;50.836;4.368;2023-02-11T21:07:43;62.10;;;39.00;;
35602;SDS011;21725;50.836;4.368;2023-02-11T21:10:44;52.67;;;37.33;;